createdAt,value
2022-08-04T00:00:53.029Z,49.11
2022-08-04T00:06:30.774Z,48.99
2022-08-04T00:11:54.184Z,49.15
2022-08-04T00:17:20.476Z,48.18
2022-08-04T00:22:46.409Z,48.11
2022-08-04T00:28:08.956Z,48.40
2022-08-04T00:33:31.278Z,49.09
2022-08-04T00:38:53.519Z,49.28
2022-08-04T00:44:42.778Z,49.46
2022-08-04T00:50:29.172Z,49.09
2022-08-04T00:55:59.400Z,49.51
2022-08-04T01:01:59.153Z,49.20
2022-08-04T01:07:35.783Z,49.70
2022-08-04T01:13:15.296Z,49.92
2022-08-04T01:18:52.600Z,50.18
2022-08-04T01:24:33.902Z,50.34
2022-08-04T01:29:59.302Z,50.55
2022-08-04T01:35:47.695Z,50.62
2022-08-04T01:41:14.072Z,50.92
2022-08-04T01:46:36.476Z,51.34
2022-08-04T01:51:59.332Z,51.72
2022-08-04T01:57:38.270Z,51.94
2022-08-04T02:03:00.822Z,52.19
2022-08-04T02:08:38.251Z,52.30
2022-08-04T02:14:45.070Z,52.48
2022-08-04T02:20:16.906Z,53.01
2022-08-04T02:25:52.170Z,53.21
2022-08-04T02:31:29.266Z,53.18
2022-08-04T02:36:52.789Z,52.53
2022-08-04T02:42:15.373Z,52.92
2022-08-04T02:48:29.357Z,52.45
2022-08-04T02:53:23.123Z,52.05
2022-08-04T02:58:49.098Z,52.07
2022-08-04T03:04:26.079Z,52.29
2022-08-04T03:10:24.507Z,52.80
2022-08-04T03:16:04.553Z,53.36
2022-08-04T03:21:29.035Z,53.57
2022-08-04T03:27:07.302Z,53.56
2022-08-04T03:32:58.578Z,53.86
2022-08-04T03:38:28.973Z,54.16
2022-08-04T03:44:09.346Z,53.89
2022-08-04T03:49:46.136Z,53.84
2022-08-04T03:55:39.000Z,54.10
2022-08-04T04:01:06.492Z,54.20
2022-08-04T04:06:40.132Z,54.97
2022-08-04T04:12:31.792Z,55.52
2022-08-04T04:18:16.466Z,55.14
2022-08-04T04:23:52.320Z,55.24
2022-08-04T04:29:29.632Z,54.96
2022-08-04T04:35:00.289Z,54.96
2022-08-04T04:40:50.461Z,54.57
2022-08-04T04:46:15.782Z,54.60
2022-08-04T04:51:55.817Z,55.21
2022-08-04T04:57:20.930Z,56.31
2022-08-04T05:03:29.518Z,56.40
2022-08-04T05:09:28.769Z,55.82
2022-08-04T05:14:53.486Z,55.26
2022-08-04T05:20:15.320Z,55.81
2022-08-04T05:26:00.335Z,55.86
2022-08-04T05:31:34.552Z,55.81
2022-08-04T05:37:00.333Z,55.56
2022-08-04T05:42:23.423Z,55.62
2022-08-04T05:47:46.615Z,56.10
2022-08-04T05:53:11.166Z,56.37
2022-08-04T05:58:34.769Z,56.16
2022-08-04T06:03:59.942Z,56.54
2022-08-04T06:09:21.681Z,56.59
2022-08-04T06:14:45.820Z,56.66
2022-08-04T06:20:18.902Z,56.25
2022-08-04T06:25:50.180Z,56.52
2022-08-04T06:32:27.634Z,56.48
2022-08-04T06:36:56.105Z,56.27
2022-08-04T06:42:22.991Z,54.69
2022-08-04T06:47:46.072Z,54.21
2022-08-04T06:53:07.813Z,54.52
2022-08-04T06:58:32.108Z,54.48
2022-08-04T07:03:54.175Z,54.38
2022-08-04T07:09:16.246Z,54.20
2022-08-04T07:14:40.099Z,53.86
2022-08-04T07:20:03.805Z,53.76
2022-08-04T07:25:58.826Z,53.78
2022-08-04T07:31:10.502Z,53.48
2022-08-04T07:36:55.187Z,53.45
2022-08-04T07:42:21.462Z,52.95
2022-08-04T07:48:04.723Z,52.39
2022-08-04T07:53:55.437Z,50.47
2022-08-04T07:59:09.268Z,50.04
2022-08-04T08:04:32.527Z,49.97
2022-08-04T08:09:54.266Z,51.05
2022-08-04T08:15:16.235Z,51.09
2022-08-04T08:20:38.098Z,50.86
2022-08-04T08:26:00.329Z,50.00
2022-08-04T08:31:22.086Z,47.68
2022-08-04T08:37:28.341Z,48.39
2022-08-04T08:44:03.794Z,47.05
2022-08-04T08:50:00.323Z,44.80
2022-08-04T08:55:47.423Z,42.37
2022-08-04T09:01:21.038Z,43.27
2022-08-04T09:07:03.289Z,43.09
2022-08-04T09:12:41.533Z,43.26
2022-08-04T09:18:07.599Z,43.45
2022-08-04T09:24:35.477Z,42.92
2022-08-04T09:30:04.171Z,42.89
2022-08-04T09:35:54.813Z,43.09
2022-08-04T09:41:48.566Z,41.95
2022-08-04T09:47:25.682Z,41.73
2022-08-04T09:53:13.707Z,41.18
2022-08-04T09:58:52.656Z,41.01
2022-08-04T10:04:17.835Z,39.69
2022-08-04T10:10:03.026Z,39.85
2022-08-04T10:15:40.264Z,40.75
2022-08-04T10:21:15.498Z,39.41
2022-08-04T10:26:59.976Z,37.87
2022-08-04T10:32:25.023Z,37.64
2022-08-04T10:38:09.990Z,38.13
2022-08-04T10:44:01.125Z,37.17
2022-08-04T10:49:33.764Z,36.97
2022-08-04T10:55:15.394Z,36.52
2022-08-04T11:00:43.143Z,35.38
2022-08-04T11:06:05.374Z,35.14
2022-08-04T11:12:00.458Z,33.92
2022-08-04T11:17:26.440Z,33.33
2022-08-04T11:22:58.387Z,33.61
2022-08-04T11:28:26.594Z,32.84
2022-08-04T11:34:16.404Z,32.33
2022-08-04T11:39:51.854Z,32.60
2022-08-04T11:45:18.005Z,32.11
2022-08-04T11:50:45.103Z,31.50
2022-08-04T11:56:12.612Z,31.74
2022-08-04T12:01:53.071Z,30.84
2022-08-04T12:07:40.499Z,30.25
2022-08-04T12:13:40.734Z,30.99
2022-08-04T12:19:08.648Z,31.27
2022-08-04T12:24:41.825Z,30.92
2022-08-04T12:31:01.681Z,31.10
2022-08-04T12:36:12.465Z,30.91
2022-08-04T12:41:40.260Z,31.07
2022-08-04T12:47:26.978Z,31.18
2022-08-04T12:53:06.638Z,31.42
2022-08-04T12:58:43.607Z,30.88
2022-08-04T13:04:18.109Z,30.28
2022-08-04T13:09:40.515Z,30.84
2022-08-04T13:15:18.530Z,31.01
2022-08-04T13:20:41.087Z,30.27
2022-08-04T13:26:45.251Z,30.15
2022-08-04T13:31:52.701Z,29.29
2022-08-04T13:37:21.034Z,29.15
2022-08-04T13:42:47.153Z,29.41
2022-08-04T13:48:20.229Z,29.72
2022-08-04T13:53:58.027Z,28.80
2022-08-04T13:59:26.146Z,28.69
2022-08-04T14:04:54.240Z,27.94
2022-08-04T14:10:16.136Z,28.53
2022-08-04T14:16:02.790Z,28.59
2022-08-04T14:21:25.047Z,28.13
2022-08-04T14:26:46.827Z,27.44
2022-08-04T14:32:12.669Z,28.26
2022-08-04T14:37:47.376Z,28.34
2022-08-04T14:43:10.598Z,28.13
2022-08-04T14:48:33.350Z,27.82
2022-08-04T14:53:55.080Z,28.27
2022-08-04T14:59:16.862Z,28.25
2022-08-04T15:04:40.202Z,27.50
2022-08-04T15:10:02.209Z,27.63
2022-08-04T15:15:36.545Z,27.68
2022-08-04T15:21:02.285Z,28.27
2022-08-04T15:26:43.053Z,28.49
2022-08-04T15:32:09.385Z,28.08
2022-08-04T15:37:42.589Z,28.62
2022-08-04T15:43:37.761Z,28.47
2022-08-04T15:49:18.918Z,28.40
2022-08-04T15:54:52.053Z,28.08
2022-08-04T16:00:15.423Z,28.35
2022-08-04T16:05:39.107Z,28.86
2022-08-04T16:11:00.869Z,28.68
2022-08-04T16:16:34.405Z,28.61
2022-08-04T16:22:00.186Z,28.56
2022-08-04T16:27:36.056Z,28.95
2022-08-04T16:32:58.406Z,29.10
2022-08-04T16:38:20.128Z,28.57
2022-08-04T16:43:42.149Z,29.38
2022-08-04T16:49:07.240Z,29.42
2022-08-04T16:54:31.488Z,28.79
2022-08-04T16:59:53.299Z,29.38
2022-08-04T17:05:39.824Z,29.23
2022-08-04T17:11:03.095Z,29.43
2022-08-04T17:16:30.317Z,29.49
2022-08-04T17:22:02.303Z,29.26
2022-08-04T17:28:19.283Z,30.05
2022-08-04T17:33:14.952Z,30.16
2022-08-04T17:38:45.664Z,30.43
2022-08-04T17:44:14.034Z,30.09
2022-08-04T17:49:52.894Z,29.82
2022-08-04T17:55:20.445Z,30.58
2022-08-04T18:00:42.818Z,31.10
2022-08-04T18:06:13.454Z,31.05
2022-08-04T18:11:41.821Z,31.34
2022-08-04T18:22:48.508Z,31.99
2022-08-04T18:28:14.309Z,32.75
2022-08-04T18:33:41.587Z,33.31
2022-08-04T18:39:12.489Z,33.95
2022-08-04T18:44:52.636Z,34.18
2022-08-04T18:50:59.887Z,34.70
2022-08-04T18:55:58.412Z,34.83
2022-08-04T19:01:20.534Z,35.44
2022-08-04T19:06:52.168Z,35.68
2022-08-04T19:12:13.940Z,35.92
2022-08-04T19:17:57.085Z,36.44
2022-08-04T19:24:10.929Z,36.85
2022-08-04T19:29:04.201Z,36.72
2022-08-04T19:34:33.295Z,36.89
2022-08-04T19:39:56.800Z,37.08
2022-08-04T19:45:40.144Z,37.67
2022-08-04T19:51:04.001Z,37.99
2022-08-04T19:56:26.299Z,38.19
2022-08-04T20:01:48.052Z,38.51
2022-08-04T20:07:14.159Z,38.87
2022-08-04T20:12:36.480Z,38.97
2022-08-04T20:18:07.862Z,39.11
2022-08-04T20:23:48.837Z,39.68
2022-08-04T20:29:11.737Z,40.70
2022-08-04T20:34:55.494Z,40.21
2022-08-04T20:40:18.008Z,40.31
2022-08-04T20:45:57.068Z,40.30
2022-08-04T20:51:25.884Z,40.38
2022-08-04T20:56:56.509Z,40.17
2022-08-04T21:02:21.915Z,40.44
2022-08-04T21:07:48.770Z,41.25
2022-08-04T21:13:10.810Z,41.94
2022-08-04T21:18:32.548Z,41.87
2022-08-04T21:23:54.286Z,42.38
2022-08-04T21:35:00.395Z,43.16
2022-08-04T21:40:36.744Z,43.48
2022-08-04T21:46:04.070Z,43.32
2022-08-04T21:52:00.043Z,43.44
2022-08-04T21:57:14.754Z,43.42
2022-08-04T22:02:36.795Z,43.75
2022-08-04T22:07:58.576Z,43.90
2022-08-04T22:13:22.719Z,44.36
2022-08-04T22:18:44.688Z,44.22
2022-08-04T22:24:06.834Z,44.31
2022-08-04T22:29:39.232Z,44.67
2022-08-04T22:35:35.493Z,44.47
2022-08-04T22:40:47.564Z,44.99
2022-08-04T22:46:23.361Z,45.42
2022-08-04T22:51:50.603Z,45.74
2022-08-04T22:57:12.661Z,46.18
2022-08-04T23:02:35.555Z,46.46
2022-08-04T23:07:58.109Z,46.98
2022-08-04T23:13:25.967Z,46.56
2022-08-04T23:18:48.951Z,46.39
2022-08-04T23:24:11.055Z,46.87
2022-08-04T23:29:53.220Z,47.44
2022-08-04T23:35:16.656Z,48.04
2022-08-04T23:40:50.237Z,47.88
2022-08-04T23:46:13.180Z,48.48
2022-08-04T23:51:35.053Z,48.51
2022-08-04T23:56:57.415Z,48.76
